Time;durP1;ratioP1;P1;durP2;ratioP2;P2;SDS_P1;SDS_P2;PMS_P1;PMS_P2;Temp;Humidity;BMP_temperature;BMP_pressure;BME280_temperature;BME280_humidity;BME280_pressure;Samples;Min_cycle;Max_cycle;Signal;HPM_P1;HPM_P2
2021/01/20 00:02:04;;;;;;;4.30;3.62;;;;;;;-0.05;53.37;96284.11;1692216;83;21204;-56
2021/01/20 00:04:32;;;;;;;5.80;3.90;;;;;;;-0.04;53.26;96274.31;1678790;84;21534;-56
2021/01/20 00:07:00;;;;;;;4.22;3.77;;;;;;;-0.06;53.25;96270.99;1697263;83;21166;-58
2021/01/20 00:09:27;;;;;;;4.37;3.37;;;;;;;-0.11;53.28;96273.69;1689522;83;21198;-56
2021/01/20 00:11:56;;;;;;;4.87;3.85;;;;;;;-0.13;53.49;96268.23;1653659;84;21598;-57
2021/01/20 00:14:24;;;;;;;4.67;4.12;;;;;;;-0.19;53.68;96264.19;1690760;84;21620;-56
2021/01/20 00:16:52;;;;;;;4.87;3.83;;;;;;;-0.25;53.98;96261.41;1683373;83;21573;-56
2021/01/20 00:19:20;;;;;;;4.65;3.65;;;;;;;-0.29;54.23;96257.73;1682375;83;21529;-56
2021/01/20 00:21:49;;;;;;;4.05;3.65;;;;;;;-0.29;54.34;96267.92;1684401;83;21405;-56
2021/01/20 00:24:17;;;;;;;5.72;4.50;;;;;;;-0.27;54.33;96260.60;1686111;83;21158;-56
2021/01/20 00:26:45;;;;;;;5.05;4.22;;;;;;;-0.21;54.35;96257.03;1694595;83;21155;-57
2021/01/20 00:29:12;;;;;;;4.78;4.28;;;;;;;-0.20;54.22;96259.95;1693847;83;21091;-57
2021/01/20 00:31:41;;;;;;;5.15;4.15;;;;;;;-0.20;54.34;96262.09;1696185;83;21114;-56
2021/01/20 00:34:10;;;;;;;5.92;4.45;;;;;;;-0.19;54.40;96257.36;1687049;83;21222;-56
2021/01/20 00:36:38;;;;;;;5.75;4.42;;;;;;;-0.17;54.65;96252.20;1668559;84;21165;-56
2021/01/20 00:39:06;;;;;;;6.07;5.00;;;;;;;-0.15;54.67;96249.16;1672860;85;21113;-56
2021/01/20 00:41:34;;;;;;;6.10;4.67;;;;;;;-0.15;54.54;96256.81;1669188;84;21113;-55
2021/01/20 00:44:03;;;;;;;5.92;4.42;;;;;;;-0.13;54.48;96243.59;1674843;84;21133;-56
2021/01/20 00:46:30;;;;;;;4.55;4.12;;;;;;;-0.11;54.66;96248.19;1672140;84;21347;-55
2021/01/20 00:48:58;;;;;;;5.65;4.58;;;;;;;-0.08;54.56;96245.98;1667570;84;21085;-56
2021/01/20 00:51:27;;;;;;;5.37;4.50;;;;;;;-0.06;54.73;96247.58;1671696;84;21498;-56
2021/01/20 00:53:55;;;;;;;4.97;4.20;;;;;;;-0.01;54.62;96234.68;1669783;84;21991;-57
2021/01/20 00:56:23;;;;;;;4.95;3.90;;;;;;;0.05;54.41;96245.95;1670688;84;21618;-56
2021/01/20 00:58:52;;;;;;;5.28;4.55;;;;;;;0.10;54.41;96246.62;1689306;83;21298;-56
2021/01/20 01:01:20;;;;;;;5.95;4.58;;;;;;;0.13;54.38;96237.59;1694239;82;21099;-57
2021/01/20 01:03:48;;;;;;;8.05;5.05;;;;;;;0.16;54.40;96228.98;1695226;83;21087;-57
2021/01/20 01:06:16;;;;;;;6.97;5.43;;;;;;;0.21;54.69;96228.83;1692454;83;21145;-58
2021/01/20 01:08:44;;;;;;;8.13;5.20;;;;;;;0.26;54.41;96215.00;1684087;83;21161;-57
2021/01/20 01:11:13;;;;;;;8.83;5.03;;;;;;;0.33;54.17;96216.92;1692864;83;21451;-57
2021/01/20 01:13:46;;;;;;;6.10;4.83;;;;;;;0.35;54.13;96200.66;1670604;84;21211;-57
2021/01/20 01:16:21;;;;;;;7.05;4.90;;;;;;;0.41;54.07;96203.44;1678051;84;21173;-57
2021/01/20 01:18:49;;;;;;;5.97;4.85;;;;;;;0.47;53.98;96205.75;1680100;84;21203;-56
2021/01/20 01:21:17;;;;;;;5.73;4.70;;;;;;;0.56;53.58;96204.59;1677820;84;21113;-56
2021/01/20 01:23:45;;;;;;;6.30;5.08;;;;;;;0.59;53.46;96204.45;1681652;84;22065;-55
2021/01/20 01:26:13;;;;;;;7.35;5.58;;;;;;;0.63;53.60;96202.20;1679573;84;21643;-56
2021/01/20 01:28:42;;;;;;;7.03;4.90;;;;;;;0.67;53.58;96191.41;1679609;84;21069;-55
2021/01/20 01:31:20;;;;;;;7.27;5.10;;;;;;;0.76;53.72;96192.78;1859854;76;22340;-56
2021/01/20 01:33:48;;;;;;;6.65;5.10;;;;;;;0.76;53.83;96189.80;1832616;78;21475;-57
2021/01/20 01:36:16;;;;;;;8.18;5.55;;;;;;;0.76;53.83;96189.80;1823108;78;21294;-57
2021/01/20 01:38:45;;;;;;;8.25;5.30;;;;;;;0.80;53.93;96199.45;1810692;77;21563;-57
2021/01/20 01:41:15;;;;;;;7.35;5.67;;;;;;;0.82;54.10;96207.45;1839041;76;21146;-57
2021/01/20 01:43:44;;;;;;;7.08;5.55;;;;;;;0.85;54.34;96206.03;1820349;78;21365;-56
2021/01/20 01:46:32;;;;;;;8.30;6.03;;;;;;;0.89;54.01;96191.45;1870512;75;22226;-57
2021/01/20 01:49:12;;;;;;;6.25;4.87;;;;;;;0.77;54.15;96195.73;1838666;77;21053;-57
2021/01/20 01:51:39;;;;;;;10.55;8.73;;;;;;;0.71;54.35;96189.97;1852363;77;21191;-57
2021/01/20 01:54:27;;;;;;;6.28;5.10;;;;;;;0.70;54.59;96181.09;1851346;77;21013;-55
2021/01/20 01:56:56;;;;;;;6.12;4.85;;;;;;;0.69;54.86;96184.52;1853632;77;21005;-57
2021/01/20 01:59:25;;;;;;;6.30;5.05;;;;;;;0.72;54.73;96185.69;1847471;77;21144;-56
2021/01/20 02:01:53;;;;;;;7.20;5.90;;;;;;;0.72;54.66;96185.69;1842373;77;21048;-56
2021/01/20 02:04:23;;;;;;;9.43;4.97;;;;;;;0.70;54.77;96186.20;1789372;77;22282;-55
2021/01/20 02:06:57;;;;;;;7.03;5.12;;;;;;;0.69;55.01;96181.55;1785231;79;21154;-56
2021/01/20 02:09:27;;;;;;;6.20;4.45;;;;;;;0.71;55.13;96184.04;1782880;80;21180;-57
2021/01/20 02:12:05;;;;;;;;;;;;;;;0.74;55.18;96159.67;1739881;80;21156;-56
2021/01/20 02:14:53;;;;;;;5.22;4.62;;;;;;;0.77;55.20;96176.13;1750575;80;20220;-57
2021/01/20 02:21:38;;;;;;;6.45;4.45;;;;;;;0.73;56.08;96171.58;1716961;81;21185;-56
2021/01/20 02:24:19;;;;;;;4.90;4.33;;;;;;;0.80;56.21;96170.91;1861637;76;22282;-57
2021/01/20 02:27:07;;;;;;;5.55;4.37;;;;;;;0.75;56.29;96160.48;1826423;78;21051;-57
2021/01/20 02:30:10;;;;;;;5.70;4.00;;;;;;;0.80;56.60;96163.69;1863633;76;22218;-55
2021/01/20 02:32:49;;;;;;;4.92;3.92;;;;;;;0.73;56.51;96151.16;1830024;77;21152;-56
2021/01/20 02:35:18;;;;;;;5.12;3.95;;;;;;;0.73;56.55;96162.64;1737731;82;21374;-57
2021/01/20 02:37:46;;;;;;;5.35;4.20;;;;;;;0.76;56.61;96151.91;1774876;80;21109;-56
2021/01/20 02:40:25;;;;;;;5.40;4.30;;;;;;;0.76;56.71;96168.52;1749991;81;21161;-56
2021/01/20 02:43:00;;;;;;;4.85;3.62;;;;;;;0.77;56.72;96167.19;1672648;84;21215;-55
2021/01/20 02:45:30;;;;;;;5.05;4.22;;;;;;;0.81;56.80;96164.91;1689299;84;21160;-57
2021/01/20 02:47:59;;;;;;;4.87;3.75;;;;;;;0.85;56.58;96165.63;1699753;84;21213;-56
2021/01/20 02:50:28;;;;;;;4.47;3.75;;;;;;;0.87;56.30;96155.74;1674972;84;21220;-56
2021/01/20 02:53:07;;;;;;;4.55;4.05;;;;;;;0.90;56.26;96160.73;1648796;84;28813;-55
2021/01/20 02:55:58;;;;;;;4.58;3.80;;;;;;;0.91;56.36;96157.73;1685828;84;21163;-55
2021/01/20 02:58:43;;;;;;;6.20;4.72;;;;;;;0.93;56.43;96165.33;1696261;84;21135;-55
2021/01/20 03:01:30;;;;;;;7.40;5.25;;;;;;;0.91;56.63;96166.21;1665043;85;21447;-55
2021/01/20 03:04:00;;;;;;;8.43;6.12;;;;;;;0.90;56.37;96163.30;1650005;85;21658;-56
2021/01/20 03:06:27;;;;;;;14.98;6.60;;;;;;;0.87;56.37;96174.05;1666359;85;21117;-55
2021/01/20 03:08:55;;;;;;;8.83;5.97;;;;;;;0.82;54.58;96165.73;1651337;85;21092;-54
2021/01/20 03:11:22;;;;;;;6.97;5.25;;;;;;;0.82;54.58;96165.73;1648210;85;21168;-56
2021/01/20 03:13:50;;;;;;;5.50;4.08;;;;;;;0.81;55.04;96158.53;1673241;84;21371;-55
2021/01/20 03:16:27;;;;;;;5.53;4.70;;;;;;;0.81;55.22;96151.33;1667929;84;21116;-55
2021/01/20 03:18:55;;;;;;;7.03;5.10;;;;;;;0.84;55.18;96148.20;1672954;85;21640;-56
2021/01/20 03:21:23;;;;;;;8.85;6.15;;;;;;;0.87;54.70;96150.63;1674167;85;21211;-56
2021/01/20 03:23:50;;;;;;;9.43;6.90;;;;;;;0.89;53.76;96155.23;1641865;86;21151;-56
2021/01/20 03:26:17;;;;;;;10.88;7.28;;;;;;;0.84;53.13;96151.17;1650400;85;21271;-56
2021/01/20 03:28:45;;;;;;;11.65;7.37;;;;;;;0.62;53.50;96135.41;1649663;85;21528;-56
2021/01/20 03:31:13;;;;;;;13.60;8.97;;;;;;;0.62;53.50;96135.41;1674122;85;21140;-56
2021/01/20 03:33:40;;;;;;;14.07;8.30;;;;;;;0.49;54.27;96141.45;1672638;84;21171;-55
2021/01/20 03:36:08;;;;;;;13.03;8.55;;;;;;;0.44;54.59;96138.21;1669755;84;21508;-56
2021/01/20 03:38:36;;;;;;;11.53;7.58;;;;;;;0.45;54.51;96139.06;1657325;84;21226;-56
2021/01/20 03:41:03;;;;;;;15.35;11.10;;;;;;;0.51;54.36;96132.01;1662985;85;21195;-56
2021/01/20 03:43:30;;;;;;;9.75;6.55;;;;;;;0.57;54.45;96128.37;1628795;87;21186;-55
2021/01/20 03:45:58;;;;;;;9.45;6.47;;;;;;;0.69;54.62;96139.41;1651241;86;21132;-55
2021/01/20 03:48:25;;;;;;;10.45;6.70;;;;;;;0.81;54.37;96133.44;1665126;86;21108;-55
2021/01/20 03:50:54;;;;;;;9.85;7.03;;;;;;;0.80;54.42;96124.93;1627763;86;21550;-56
2021/01/20 03:53:22;;;;;;;8.63;6.08;;;;;;;0.82;54.66;96121.89;1618196;87;21186;-55
2021/01/20 03:55:50;;;;;;;12.85;7.95;;;;;;;0.90;54.27;96131.36;1616780;87;21160;-56
2021/01/20 03:58:19;;;;;;;13.15;8.50;;;;;;;0.90;54.27;96131.36;1636835;87;21659;-56
2021/01/20 04:00:47;;;;;;;16.73;9.15;;;;;;;0.81;54.68;96144.94;1634271;86;21517;-56
2021/01/20 04:03:15;;;;;;;13.62;9.08;;;;;;;0.73;54.67;96142.22;1652539;84;21208;-56
2021/01/20 04:05:47;;;;;;;11.95;7.47;;;;;;;0.66;54.93;96138.25;1645459;86;21152;-56
2021/01/20 04:08:15;;;;;;;9.38;6.97;;;;;;;0.61;55.24;96149.51;1650489;84;21148;-56
2021/01/20 04:10:42;;;;;;;14.18;7.80;;;;;;;0.65;55.40;96140.86;1620358;87;21612;-56
2021/01/20 04:13:10;;;;;;;12.53;7.67;;;;;;;0.73;55.43;96142.22;1663714;86;21164;-55
2021/01/20 04:15:37;;;;;;;10.38;7.30;;;;;;;0.75;55.73;96140.06;1663612;84;21268;-57
2021/01/20 04:18:05;;;;;;;10.13;6.58;;;;;;;0.72;56.34;96146.10;1638539;86;21181;-57
2021/01/20 04:20:34;;;;;;;10.13;7.13;;;;;;;0.68;56.57;96140.29;1641300;86;21153;-58
2021/01/20 04:23:02;;;;;;;8.53;5.73;;;;;;;0.70;56.83;96150.45;1640743;86;21870;-57
2021/01/20 04:25:30;;;;;;;3.75;3.20;;;;;;;0.71;57.33;96144.00;1640470;86;21140;-57
2021/01/20 04:27:59;;;;;;;4.17;3.20;;;;;;;0.76;57.63;96148.09;1637334;86;21234;-57
2021/01/20 04:30:28;;;;;;;3.80;3.30;;;;;;;0.85;57.58;96148.56;1639764;86;21141;-58
2021/01/20 04:32:56;;;;;;;4.17;3.30;;;;;;;0.90;57.46;96127.53;1640007;86;28436;-56
2021/01/20 04:35:24;;;;;;;4.07;3.23;;;;;;;1.00;57.34;96143.30;1613713;87;21113;-56
2021/01/20 04:37:56;;;;;;;4.92;3.87;;;;;;;1.04;57.25;96141.02;1642185;86;21109;-56
2021/01/20 04:40:24;;;;;;;4.10;3.27;;;;;;;1.13;57.17;96144.92;1643965;86;23458;-57
2021/01/20 04:42:51;;;;;;;3.35;3.00;;;;;;;1.20;57.04;96154.02;1635035;86;21193;-56
2021/01/20 04:45:20;;;;;;;4.20;3.30;;;;;;;1.26;56.88;96152.47;1625189;86;21178;-56
2021/01/20 04:47:50;;;;;;;3.47;3.17;;;;;;;1.35;56.58;96161.52;1641441;86;21179;-56
2021/01/20 04:50:20;;;;;;;3.47;2.92;;;;;;;1.35;56.58;96161.52;1657134;85;21189;-57
2021/01/20 04:52:48;;;;;;;3.77;3.05;;;;;;;1.41;56.29;96163.80;1636471;86;22140;-57
2021/01/20 04:55:16;;;;;;;3.67;3.00;;;;;;;1.46;56.06;96172.13;1658289;85;21109;-57
2021/01/20 04:57:43;;;;;;;3.40;3.10;;;;;;;1.51;56.06;96174.48;1640528;86;21171;-59
2021/01/20 05:00:13;;;;;;;29.37;17.02;;;;;;;1.59;55.71;96178.83;1643095;86;21160;-58
2021/01/20 05:02:45;;;;;;;80.28;43.48;;;;;;;1.69;55.51;96178.00;1658576;85;21176;-57
2021/01/20 05:05:13;;;;;;;80.83;45.12;;;;;;;1.74;54.22;96174.80;1659453;85;21394;-57
2021/01/20 05:07:40;;;;;;;84.72;47.00;;;;;;;1.64;53.53;96169.69;1637836;87;21591;-57
2021/01/20 05:10:09;;;;;;;84.87;47.08;;;;;;;1.50;53.49;96174.11;1658046;85;21092;-56
2021/01/20 05:12:39;;;;;;;;;;;;;;;1.36;53.08;96181.05;1659583;85;21600;-55
2021/01/20 05:15:16;;;;;;;98.60;51.88;;;;;;;1.14;52.56;96186.20;1638999;86;20381;-56
2021/01/20 05:17:59;;;;;;;100.50;53.30;;;;;;;0.78;52.70;96191.84;1654779;85;21221;-56
2021/01/20 05:20:37;;;;;;;102.55;53.00;;;;;;;0.12;53.88;96197.65;1638366;86;21120;-60
2021/01/20 05:23:09;;;;;;;101.55;52.70;;;;;;;0.12;53.88;96197.65;1643262;86;21184;-57
2021/01/20 05:25:40;;;;;;;95.20;52.05;;;;;;;-0.13;54.41;96196.41;1649687;86;21512;-56
2021/01/20 05:28:25;;;;;;;99.25;53.65;;;;;;;-0.46;54.71;96203.45;1653334;86;21107;-57
2021/01/20 05:30:57;;;;;;;100.07;53.15;;;;;;;-0.87;55.67;96205.20;1654580;85;21219;-57
2021/01/20 05:33:38;;;;;;;96.08;52.08;;;;;;;-1.12;56.60;96211.47;1633573;86;21227;-57
2021/01/20 05:36:11;;;;;;;94.92;51.08;;;;;;;-1.23;56.90;96216.08;1637772;86;21112;-56
2021/01/20 05:38:46;;;;;;;100.25;50.78;;;;;;;-1.32;57.15;96228.20;1638875;86;21655;-56
2021/01/20 05:41:23;;;;;;;102.45;54.03;;;;;;;-1.39;57.45;96225.42;1636621;86;21090;-55
2021/01/20 05:44:03;;;;;;;102.45;54.93;;;;;;;-1.52;57.72;96236.37;1636821;84;21400;-55
2021/01/20 05:46:37;;;;;;;111.62;58.38;;;;;;;-1.61;58.06;96237.08;1638453;87;21611;-57
2021/01/20 05:49:05;;;;;;;112.52;58.92;;;;;;;-1.81;58.36;96242.30;1637540;86;21567;-56
2021/01/20 05:51:41;;;;;;;122.13;61.30;;;;;;;-1.97;58.88;96246.95;1642350;86;21616;-57
2021/01/20 05:54:10;;;;;;;118.95;61.15;;;;;;;-2.07;59.24;96251.45;1640011;85;21282;-56
2021/01/20 05:56:37;;;;;;;112.77;57.40;;;;;;;-2.10;59.48;96253.23;1640560;85;22162;-57
2021/01/20 05:59:11;;;;;;;117.23;59.80;;;;;;;-2.07;59.48;96246.36;1640935;86;21137;-56
2021/01/20 06:01:39;;;;;;;104.75;54.88;;;;;;;-2.05;59.52;96256.05;1640399;87;21207;-58
2021/01/20 06:04:07;;;;;;;105.92;55.17;;;;;;;-2.01;59.49;96258.06;1640406;86;27767;-56
2021/01/20 06:06:35;;;;;;;105.47;55.80;;;;;;;-2.00;59.41;96256.38;1640176;86;21091;-56
2021/01/20 06:09:04;;;;;;;104.20;54.23;;;;;;;-1.99;59.50;96256.34;1640846;85;21442;-56
2021/01/20 06:11:32;;;;;;;107.17;54.95;;;;;;;-1.93;59.43;96259.14;1639587;86;21176;-56
2021/01/20 06:14:02;;;;;;;104.00;54.60;;;;;;;-1.89;59.39;96258.20;1640332;85;21762;-57
2021/01/20 06:16:29;;;;;;;105.05;54.27;;;;;;;-1.83;59.26;96259.29;1639443;85;21622;-55
2021/01/20 06:19:09;;;;;;;237.97;136.52;;;;;;;-1.77;59.18;96262.12;1642488;86;21611;-56
2021/01/20 06:21:37;;;;;;;333.17;185.25;;;;;;;-1.72;59.50;96261.56;1636828;87;21271;-57
2021/01/20 06:24:18;;;;;;;107.03;55.92;;;;;;;-1.60;59.45;96262.48;1639219;85;21112;-57
2021/01/20 06:26:55;;;;;;;102.47;52.83;;;;;;;-1.45;59.03;96262.94;1636918;86;21104;-55
2021/01/20 06:29:26;;;;;;;102.65;54.38;;;;;;;-1.36;58.73;96264.78;1642060;86;21109;-56
2021/01/20 06:31:55;;;;;;;99.13;51.75;;;;;;;-1.24;58.56;96262.31;1637841;86;21127;-57
2021/01/20 06:34:22;;;;;;;96.75;51.68;;;;;;;-1.17;58.47;96268.06;1635811;86;22265;-56
2021/01/20 06:36:51;;;;;;;92.45;49.73;;;;;;;-1.10;58.28;96267.02;1637513;85;21124;-56
2021/01/20 06:39:30;;;;;;;105.55;53.95;;;;;;;-1.12;58.29;96268.34;1640314;86;21196;-56
2021/01/20 06:41:59;;;;;;;101.90;51.30;;;;;;;-1.08;58.34;96269.52;1639309;85;21103;-57
2021/01/20 06:44:27;;;;;;;94.52;51.65;;;;;;;-1.05;58.13;96266.45;1630339;86;21163;-56
2021/01/20 06:47:00;;;;;;;93.12;49.48;;;;;;;-0.97;57.95;96273.83;1638525;85;21247;-56
2021/01/20 06:49:33;;;;;;;93.85;49.55;;;;;;;-0.95;57.81;96275.47;1639336;85;21584;-56
2021/01/20 06:52:13;;;;;;;94.70;50.15;;;;;;;-0.98;57.88;96273.01;1640777;85;21612;-56
2021/01/20 06:54:45;;;;;;;99.00;50.03;;;;;;;-0.88;57.87;96274.84;1640896;85;21155;-57
2021/01/20 06:57:32;;;;;;;97.20;51.02;;;;;;;-0.80;57.60;96274.17;1639007;85;21186;-56
2021/01/20 07:00:13;;;;;;;105.78;53.60;;;;;;;-0.70;57.51;96281.55;1639982;86;21237;-58
2021/01/20 07:03:03;;;;;;;99.32;53.78;;;;;;;-0.65;57.31;96284.33;1634468;86;21263;-56
2021/01/20 07:05:34;;;;;;;98.37;51.53;;;;;;;-0.56;57.13;96278.09;1613049;86;21152;-56
2021/01/20 07:08:02;;;;;;;92.08;51.92;;;;;;;-0.51;56.82;96286.88;1639179;86;21222;-57
2021/01/20 07:10:33;;;;;;;99.60;54.13;;;;;;;-0.47;56.67;96285.92;1640192;85;21583;-55
2021/01/20 07:13:15;;;;;;;97.75;53.48;;;;;;;-0.42;56.58;96291.25;1665909;84;21386;-55
2021/01/20 07:15:48;;;;;;;93.70;49.98;;;;;;;-0.33;56.46;96290.14;1661239;86;21184;-56
2021/01/20 07:18:16;;;;;;;94.70;49.80;;;;;;;-0.20;56.13;96285.45;1665783;84;21561;-59
2021/01/20 07:20:45;;;;;;;89.25;50.48;;;;;;;0.05;55.72;96294.84;1666833;86;21203;-56
2021/01/20 07:23:12;;;;;;;92.27;50.48;;;;;;;0.39;55.12;96298.36;1638131;86;21166;-56
2021/01/20 07:25:40;;;;;;;94.58;51.58;;;;;;;0.72;54.37;96292.52;1636817;87;21871;-56
2021/01/20 07:28:08;;;;;;;92.37;52.78;;;;;;;1.10;53.67;96296.66;1662986;84;21581;-56
2021/01/20 07:30:36;;;;;;;96.63;54.83;;;;;;;2.16;51.45;96290.33;1658772;85;21105;-58
2021/01/20 07:33:19;;;;;;;96.22;55.85;;;;;;;2.57;50.61;96290.29;1658189;86;21530;-56
2021/01/20 07:35:48;;;;;;;96.12;52.73;;;;;;;2.57;50.61;96290.29;1654864;84;21198;-56
2021/01/20 07:38:17;;;;;;;93.47;53.95;;;;;;;2.83;49.69;96297.30;1658776;85;22271;-57
2021/01/20 07:40:45;;;;;;;95.67;53.63;;;;;;;2.92;49.15;96298.61;1661657;85;21551;-61
2021/01/20 07:43:21;;;;;;;96.40;53.58;;;;;;;2.88;48.92;96295.81;1654811;85;21125;-55
2021/01/20 07:45:50;;;;;;;98.17;54.05;;;;;;;2.79;48.99;96299.59;1659021;86;21214;-55
2021/01/20 07:48:29;;;;;;;94.35;54.65;;;;;;;2.74;49.22;96298.52;1661172;86;21223;-55
2021/01/20 07:50:57;;;;;;;98.37;56.30;;;;;;;2.73;49.27;96302.42;1660677;86;22366;-55
2021/01/20 07:53:25;;;;;;;105.12;60.15;;;;;;;2.66;49.19;96304.42;1649451;86;21242;-55
2021/01/20 07:55:54;;;;;;;112.27;61.13;;;;;;;2.52;49.45;96310.61;1638771;87;21086;-55
2021/01/20 07:58:26;;;;;;;;;;;;;;;2.41;49.66;96316.18;1671168;86;21213;-55
2021/01/20 08:00:54;;;;;;;106.92;60.92;;;;;;;2.30;49.64;96315.80;1651779;85;20210;-55
2021/01/20 08:03:34;;;;;;;108.80;59.85;;;;;;;2.11;49.88;96326.80;1657638;86;22326;-55
2021/01/20 08:06:10;;;;;;;111.68;61.65;;;;;;;2.00;50.25;96330.25;1662007;86;21165;-55
2021/01/20 08:08:57;;;;;;;109.40;60.52;;;;;;;1.96;50.56;96337.68;1623717;87;21112;-56
2021/01/20 08:11:30;;;;;;;108.42;60.17;;;;;;;1.95;50.81;96342.40;1668995;86;21525;-55
2021/01/20 08:14:00;;;;;;;109.03;62.38;;;;;;;1.89;50.96;96344.77;1665378;84;21199;-56
2021/01/20 08:16:28;;;;;;;109.45;63.13;;;;;;;1.89;51.02;96346.05;1650954;84;21231;-55
2021/01/20 08:18:57;;;;;;;108.60;60.67;;;;;;;1.91;50.84;96343.40;1658702;86;21537;-56
2021/01/20 08:21:25;;;;;;;102.62;59.48;;;;;;;1.83;50.92;96352.68;1630482;87;21100;-55
2021/01/20 08:24:05;;;;;;;114.60;60.97;;;;;;;1.77;51.39;96356.75;1627726;87;21598;-56
2021/01/20 08:26:30;;;;;;;107.72;58.83;;;;;;;1.71;51.42;96354.42;1638243;86;21389;-56
2021/01/20 08:29:11;;;;;;;110.68;59.05;;;;;;;1.67;51.52;96355.00;1664693;86;21454;-56
2021/01/20 08:31:42;;;;;;;105.78;57.55;;;;;;;1.63;51.63;96356.02;1632383;87;21227;-55
2021/01/20 08:34:28;;;;;;;98.80;57.65;;;;;;;1.54;51.93;96358.92;1640258;87;21147;-55
2021/01/20 08:37:04;;;;;;;;;;;;;;;1.53;51.99;96362.36;1617372;87;21137;-56
2021/01/20 08:39:32;;;;;;;96.80;52.50;;;;;;;1.49;52.16;96355.26;1661922;84;20562;-56
2021/01/20 08:42:29;;;;;;;93.95;52.75;;;;;;;1.47;52.48;96364.27;1665283;86;22915;-56
2021/01/20 08:45:07;;;;;;;91.28;50.67;;;;;;;1.54;52.76;96355.09;1617488;87;21551;-55
2021/01/20 08:47:55;;;;;;;90.22;51.45;;;;;;;1.58;52.38;96357.48;1641628;87;21111;-55
2021/01/20 08:50:46;;;;;;;;;;;;;;;1.60;52.37;96350.57;1663453;86;21109;-55
2021/01/20 08:53:15;;;;;;;85.45;46.77;;;;;;;1.58;52.33;96349.80;1654936;85;20493;-55
2021/01/20 08:55:52;;;;;;;85.83;47.83;;;;;;;1.55;52.48;96352.48;1641220;86;22117;-56
2021/01/20 08:58:35;;;;;;;87.20;48.30;;;;;;;1.50;53.04;96358.21;1667085;86;21580;-55
2021/01/20 09:01:11;;;;;;;90.92;51.63;;;;;;;1.59;53.21;96360.40;1665711;86;21517;-55
2021/01/20 09:03:58;;;;;;;94.92;50.67;;;;;;;1.72;53.31;96356.11;1667253;84;21167;-55
2021/01/20 09:06:27;;;;;;;93.33;53.68;;;;;;;1.83;53.16;96353.50;1644331;86;21220;-55
2021/01/20 09:08:55;;;;;;;91.90;52.55;;;;;;;2.03;53.02;96353.16;1663323;84;21681;-56
2021/01/20 09:11:22;;;;;;;94.75;53.10;;;;;;;2.23;52.71;96347.22;1666637;84;21227;-60
2021/01/20 09:13:51;;;;;;;77.80;43.40;;;;;;;2.34;52.48;96347.61;1633663;86;21156;-56
2021/01/20 09:16:30;;;;;;;88.60;50.23;;;;;;;2.46;52.31;96348.00;1660773;86;21081;-56
2021/01/20 09:18:58;;;;;;;84.10;48.60;;;;;;;2.46;52.47;96346.72;1635500;87;21092;-55
2021/01/20 09:21:27;;;;;;;79.85;46.60;;;;;;;2.56;52.75;96346.70;1635383;87;21398;-54
2021/01/20 09:23:55;;;;;;;45.48;27.48;;;;;;;2.79;52.62;96346.17;1655671;86;21125;-55
2021/01/20 09:26:23;;;;;;;60.90;35.55;;;;;;;2.97;52.59;96350.48;1667102;85;21174;-56
2021/01/20 09:28:51;;;;;;;64.55;37.05;;;;;;;3.10;52.50;96350.78;1659186;86;21155;-56
2021/01/20 09:31:18;;;;;;;26.50;17.70;;;;;;;3.25;52.44;96348.80;1651509;86;21689;-55
2021/01/20 09:33:46;;;;;;;18.60;12.40;;;;;;;3.35;52.38;96353.06;1660969;86;21238;-55
2021/01/20 09:36:14;;;;;;;42.55;25.17;;;;;;;3.46;52.50;96345.72;1653970;86;21121;-56
2021/01/20 09:38:46;;;;;;;20.35;11.90;;;;;;;3.55;52.22;96339.31;1626894;86;21111;-57
2021/01/20 09:41:16;;;;;;;11.03;8.08;;;;;;;3.61;52.15;96337.75;1620013;86;21552;-56
2021/01/20 09:43:44;;;;;;;9.00;7.28;;;;;;;3.74;52.26;96341.86;1665575;86;21587;-56
2021/01/20 09:46:12;;;;;;;5.92;4.67;;;;;;;3.87;52.32;96338.27;1637376;87;21392;-56
2021/01/20 09:48:40;;;;;;;5.42;4.90;;;;;;;4.04;51.80;96335.70;1624294;87;21616;-57
2021/01/20 09:51:07;;;;;;;4.83;4.30;;;;;;;4.12;51.59;96323.78;1658276;84;21090;-55
2021/01/20 09:53:35;;;;;;;4.97;4.45;;;;;;;4.10;51.44;96326.89;1651975;86;21085;-57
2021/01/20 09:56:04;;;;;;;4.97;4.47;;;;;;;4.03;51.41;96324.25;1667295;86;21180;-56
2021/01/20 09:58:37;;;;;;;6.55;5.20;;;;;;;3.92;51.70;96323.94;1638724;87;21448;-57
2021/01/20 10:01:01;;;;;;;6.67;5.72;;;;;;;3.89;52.10;96321.52;1637408;86;21184;-57
2021/01/20 10:03:28;;;;;;;6.67;5.60;;;;;;;3.93;52.36;96325.58;1610725;87;21240;-56
2021/01/20 10:05:56;;;;;;;6.75;5.65;;;;;;;4.03;51.82;96329.39;1636684;87;21161;-56
2021/01/20 10:08:24;;;;;;;5.75;5.20;;;;;;;4.04;51.92;96319.02;1628265;86;26475;-56
2021/01/20 10:10:52;;;;;;;6.10;5.20;;;;;;;4.01;51.87;96325.61;1612469;88;21188;-56
2021/01/20 10:13:22;;;;;;;6.85;5.58;;;;;;;4.00;52.03;96324.39;1650661;86;21652;-56
2021/01/20 10:15:48;;;;;;;5.92;5.12;;;;;;;4.03;52.17;96317.38;1632498;86;21209;-58
2021/01/20 10:18:16;;;;;;;5.30;4.80;;;;;;;4.11;51.81;96319.58;1664128;86;21115;-56
2021/01/20 10:20:44;;;;;;;5.87;5.20;;;;;;;4.13;51.73;96316.47;1657706;84;21098;-56
2021/01/20 10:23:12;;;;;;;5.95;4.92;;;;;;;4.20;51.87;96317.00;1623424;84;21207;-56
2021/01/20 10:25:39;;;;;;;10.05;8.18;;;;;;;4.33;51.66;96310.80;1650130;86;21604;-58
2021/01/20 10:28:07;;;;;;;16.62;12.28;;;;;;;4.43;52.58;96301.72;1658156;85;21219;-59
2021/01/20 10:30:37;;;;;;;26.90;19.20;;;;;;;4.54;52.00;96303.72;1630656;87;21110;-57
2021/01/20 10:33:05;;;;;;;6.20;5.60;;;;;;;4.56;51.20;96300.18;1649947;85;21175;-57
2021/01/20 10:35:34;;;;;;;5.53;5.03;;;;;;;4.48;51.06;96299.74;1652278;86;21847;-56
2021/01/20 10:38:01;;;;;;;5.35;4.85;;;;;;;4.40;51.34;96303.97;1655375;85;22435;-56
2021/01/20 10:40:29;;;;;;;5.53;5.03;;;;;;;4.35;51.53;96309.80;1662268;84;21596;-55
2021/01/20 10:42:57;;;;;;;5.33;4.83;;;;;;;4.33;51.73;96310.34;1664926;86;21098;-57
2021/01/20 10:45:26;;;;;;;5.23;4.60;;;;;;;4.38;51.62;96320.39;1655337;85;21158;-56
2021/01/20 10:47:55;;;;;;;5.92;4.80;;;;;;;4.42;51.46;96319.31;1661246;84;21281;-56
2021/01/20 10:50:24;;;;;;;5.50;5.00;;;;;;;4.39;51.52;96321.59;1661681;84;21219;-56
2021/01/20 10:52:52;;;;;;;5.90;5.10;;;;;;;4.35;51.69;96325.67;1664317;84;21025;-56
2021/01/20 10:55:20;;;;;;;5.72;4.83;;;;;;;4.36;51.66;96320.92;1662285;84;21541;-57
2021/01/20 10:57:48;;;;;;;5.42;4.67;;;;;;;4.34;51.57;96323.57;1656124;85;21186;-56
2021/01/20 11:00:20;;;;;;;5.85;5.25;;;;;;;4.30;51.71;96314.34;1660238;84;21388;-58
2021/01/20 11:02:48;;;;;;;6.35;4.92;;;;;;;4.27;51.77;96316.23;1663211;84;21111;-57
2021/01/20 11:05:16;;;;;;;5.60;5.00;;;;;;;4.17;51.90;96307.69;1661869;84;21083;-57
2021/01/20 11:07:44;;;;;;;16.67;11.33;;;;;;;4.04;52.26;96298.94;1665644;84;21833;-56
2021/01/20 11:10:13;;;;;;;15.05;7.92;;;;;;;3.99;53.00;96310.70;1664897;84;21159;-57
2021/01/20 11:12:41;;;;;;;6.83;5.00;;;;;;;3.93;52.65;96304.61;1663091;84;21408;-58
2021/01/20 11:15:12;;;;;;;5.10;4.60;;;;;;;3.86;52.89;96294.25;1662229;84;21127;-58
2021/01/20 11:17:40;;;;;;;6.12;5.00;;;;;;;3.79;53.17;96297.56;1680100;84;21125;-57
2021/01/20 11:20:15;;;;;;;5.28;4.45;;;;;;;3.77;53.20;96297.27;1646967;85;21178;-56
2021/01/20 11:22:43;;;;;;;4.97;4.53;;;;;;;3.80;53.15;96277.85;1664431;84;21190;-56
2021/01/20 11:25:12;;;;;;;5.05;4.55;;;;;;;3.81;53.04;96290.61;1665920;84;21229;-56
2021/01/20 11:27:39;;;;;;;5.78;5.00;;;;;;;3.81;53.01;96281.63;1665305;84;21783;-57
2021/01/20 11:30:09;;;;;;;5.40;4.90;;;;;;;3.82;53.23;96282.48;1670160;83;21073;-57
2021/01/20 11:32:36;;;;;;;4.83;4.10;;;;;;;3.89;53.08;96280.45;1650485;85;21170;-57
2021/01/20 11:35:27;;;;;;;5.87;4.70;;;;;;;3.95;52.57;96277.59;1666342;84;21160;-59
2021/01/20 11:37:59;;;;;;;4.30;3.90;;;;;;;3.99;52.42;96278.62;1701739;82;21398;-56
2021/01/20 11:40:27;;;;;;;4.75;3.98;;;;;;;3.97;52.01;96285.57;1639297;85;21128;-57
2021/01/20 11:42:58;;;;;;;4.50;4.10;;;;;;;3.99;51.93;96280.36;1644310;85;28956;-57
2021/01/20 11:45:34;;;;;;;4.83;4.08;;;;;;;4.05;51.74;96281.35;1688873;83;21120;-56
2021/01/20 11:48:04;;;;;;;4.00;3.60;;;;;;;4.09;51.53;96279.45;1698994;83;21142;-56
2021/01/20 11:50:34;;;;;;;4.80;3.60;;;;;;;4.15;51.34;96285.58;1687621;83;21431;-57
2021/01/20 11:53:02;;;;;;;6.20;4.92;;;;;;;4.16;51.36;96284.22;1657454;85;21173;-57
2021/01/20 11:55:31;;;;;;;4.57;3.93;;;;;;;4.23;51.35;96291.16;1686263;83;21149;-58